Time;durP1;ratioP1;P1;durP2;ratioP2;P2;SDS_P1;SDS_P2;PMS_P1;PMS_P2;Temp;Humidity;BMP_temperature;BMP_pressure;BME280_temperature;BME280_humidity;BME280_pressure;Samples;Min_cycle;Max_cycle;Signal;HPM_P1;HPM_P2
2022/01/01 00:00:12;;;;;;;46.70;24.27;;;12.70;99.90;;;13.08;92.29;101675.50;4990114;28;20684;-72
2022/01/01 00:02:40;;;;;;;36.53;19.57;;;12.70;99.90;;;13.06;92.36;101669.53;4976365;28;20622;-74
2022/01/01 00:05:10;;;;;;;32.27;16.40;;;12.60;99.90;;;13.05;92.48;101670.47;4985895;28;20649;-74
2022/01/01 00:07:40;;;;;;;74.67;33.27;;;12.70;99.90;;;13.10;92.59;101677.09;4994192;28;20644;-72
2022/01/01 00:10:08;;;;;;;66.57;33.47;;;12.70;99.90;;;13.11;92.95;101675.31;4994567;28;20733;-74
2022/01/01 00:12:36;;;;;;;43.43;22.87;;;12.70;99.90;;;13.15;92.19;101677.63;4960355;28;20765;-67
2022/01/01 00:15:04;;;;;;;31.70;16.27;;;12.80;99.90;;;13.16;92.24;101678.47;4977644;28;20630;-72
2022/01/01 00:17:31;;;;;;;25.83;13.00;;;12.70;99.90;;;13.16;91.70;101671.44;4993733;28;20642;-74
2022/01/01 00:19:58;;;;;;;27.73;15.37;;;12.80;99.90;;;13.15;92.00;101677.63;4977591;28;20630;-74
2022/01/01 00:22:25;;;;;;;23.87;13.40;;;12.70;99.90;;;13.17;92.03;101682.75;4977441;28;21198;-75
2022/01/01 00:24:51;;;;;;;28.30;16.13;;;12.80;99.90;;;13.15;91.74;101682.88;4976670;28;20689;-73
2022/01/01 00:27:18;;;;;;;29.27;16.53;;;12.80;99.90;;;13.15;91.68;101676.78;4977035;28;20632;-73
2022/01/01 00:29:45;;;;;;;24.13;13.27;;;12.80;99.90;;;13.08;92.53;101671.09;4977293;28;20625;-72
2022/01/01 00:32:12;;;;;;;18.20;11.20;;;12.70;99.90;;;13.08;92.30;101670.25;4994827;28;20620;-75
2022/01/01 00:34:39;;;;;;;16.47;10.40;;;12.70;99.90;;;13.05;92.44;101670.47;4976056;28;20721;-74
2022/01/01 00:37:06;;;;;;;21.60;10.70;;;12.60;99.90;;;13.02;93.28;101663.63;4992674;28;20649;-71
2022/01/01 00:39:33;;;;;;;12.00;7.97;;;12.60;99.90;;;13.00;93.23;101662.88;4960703;28;21195;-74
2022/01/01 00:42:00;;;;;;;10.97;7.00;;;12.60;99.90;;;12.95;93.20;101664.94;4976858;28;20614;-73
2022/01/01 00:44:30;;;;;;;10.33;6.63;;;12.60;99.90;;;12.93;93.57;101658.13;4976929;28;20650;-74
2022/01/01 00:46:57;;;;;;;14.83;6.10;;;12.60;99.90;;;12.95;93.66;101658.88;4992053;23;20694;-68
2022/01/01 00:49:25;;;;;;;8.87;5.80;;;12.60;99.90;;;12.95;93.56;101653.63;4993020;28;20622;-67
2022/01/01 00:51:52;;;;;;;10.17;6.10;;;12.60;99.90;;;13.00;93.32;101647.16;4994246;28;20713;-67
2022/01/01 00:54:19;;;;;;;9.20;6.30;;;12.60;99.90;;;12.98;93.49;101658.69;4992878;28;20627;-67
2022/01/01 00:56:46;;;;;;;7.37;5.70;;;12.60;99.90;;;12.94;93.14;101667.69;4989461;28;20650;-68
2022/01/01 00:59:15;;;;;;;7.83;4.90;;;12.50;99.90;;;12.83;93.69;101657.06;4986109;28;20614;-67
2022/01/01 01:01:42;;;;;;;9.70;5.70;;;12.50;99.90;;;12.79;94.10;101658.19;5005068;28;20622;-67
2022/01/01 01:04:09;;;;;;;8.70;5.40;;;12.40;99.90;;;12.73;94.17;101669.06;4992104;28;20781;-66
2022/01/01 01:06:36;;;;;;;7.77;5.30;;;12.30;99.90;;;12.72;94.35;101672.63;4992969;28;20983;-66
2022/01/01 01:09:03;;;;;;;10.03;5.90;;;12.30;99.90;;;12.68;94.95;101676.38;4976520;28;20973;-66
2022/01/01 01:11:30;;;;;;;7.93;5.37;;;12.30;99.90;;;12.67;95.39;101682.56;4993754;28;20628;-67
2022/01/01 01:14:07;;;;;;;5.57;4.53;;;12.20;99.90;;;12.65;95.12;101682.66;4992705;28;20978;-66
2022/01/01 01:16:34;;;;;;;7.53;4.77;;;12.30;99.90;;;12.67;94.75;101678.16;4993541;28;20622;-67
2022/01/01 01:19:04;;;;;;;6.57;4.37;;;12.30;99.90;;;12.62;94.97;101677.63;4992604;28;20618;-65
2022/01/01 01:21:31;;;;;;;8.73;5.60;;;12.20;99.90;;;12.56;94.89;101679.78;5009281;28;20603;-68
2022/01/01 01:23:58;;;;;;;10.10;6.13;;;12.10;99.90;;;12.51;95.00;101681.84;4993351;28;20664;-64
2022/01/01 01:26:28;;;;;;;9.80;6.47;;;12.10;99.90;;;12.50;94.92;101688.84;4992014;28;20653;-65
2022/01/01 01:28:56;;;;;;;7.47;5.00;;;12.10;99.90;;;12.42;95.63;101680.66;4991491;28;20666;-66
2022/01/01 01:31:25;;;;;;;10.23;5.37;;;12.00;99.90;;;12.44;95.25;101684.84;4999925;28;21285;-65
2022/01/01 01:33:52;;;;;;;9.23;5.93;;;12.00;99.90;;;12.43;95.96;101692.81;4986679;28;20618;-65
2022/01/01 01:36:19;;;;;;;8.37;5.20;;;12.00;99.90;;;12.38;96.08;101690.47;4991324;28;20640;-66
2022/01/01 01:38:45;;;;;;;8.27;5.27;;;12.00;99.90;;;12.34;96.75;101693.38;4991638;28;21192;-65
2022/01/01 01:41:13;;;;;;;11.37;5.53;;;11.90;99.90;;;12.34;96.60;101689.00;4991935;28;20843;-65
2022/01/01 01:43:40;;;;;;;13.13;5.77;;;11.90;99.90;;;12.37;96.64;101695.81;4990654;28;20662;-67
2022/01/01 01:46:12;;;;;;;8.27;5.60;;;12.00;99.90;;;12.38;97.09;101687.03;4976344;28;20644;-66
2022/01/01 01:48:39;;;;;;;6.77;5.40;;;12.00;99.90;;;12.42;95.87;101691.97;4983471;28;20650;-67
2022/01/01 01:51:06;;;;;;;9.00;5.40;;;12.10;99.90;;;12.40;96.14;101693.84;4990862;28;20622;-66
2022/01/01 01:53:33;;;;;;;8.17;4.67;;;12.00;99.90;;;12.42;96.67;101694.59;4984550;28;21000;-66
2022/01/01 01:56:00;;;;;;;7.30;4.40;;;12.00;99.90;;;12.42;96.46;101694.59;4966896;28;20631;-66
2022/01/01 01:58:30;;;;;;;7.90;4.70;;;12.10;99.90;;;12.44;96.14;101694.47;4991509;28;20652;-66
2022/01/01 02:01:20;;;;;;;9.67;5.07;;;12.10;99.90;;;12.41;96.26;101684.22;4985905;28;21017;-66
2022/01/01 02:03:48;;;;;;;6.70;4.63;;;12.10;99.90;;;12.46;96.12;101692.59;4993784;28;20658;-66
2022/01/01 02:06:16;;;;;;;4.33;3.50;;;12.10;99.90;;;12.46;95.54;101698.69;4988170;28;20627;-65
2022/01/01 02:08:44;;;;;;;5.43;3.63;;;12.10;99.90;;;12.47;96.27;101699.53;4992811;28;20724;-66
2022/01/01 02:11:11;;;;;;;6.77;5.00;;;12.10;99.90;;;12.46;95.78;101703.91;4991761;28;20606;-66
2022/01/01 02:14:00;;;;;;;4.23;3.80;;;12.10;99.90;;;12.46;95.96;101708.31;4972869;28;20961;-63
2022/01/01 02:16:32;;;;;;;4.90;3.50;;;12.10;99.90;;;12.46;96.00;101703.91;4974078;28;20638;-68
2022/01/01 02:18:59;;;;;;;6.93;4.10;;;12.10;99.90;;;12.47;95.77;101702.16;4974417;28;20684;-67
2022/01/01 02:21:29;;;;;;;3.67;3.03;;;12.10;99.90;;;12.46;96.37;101697.84;4974280;28;21097;-65
2022/01/01 02:23:58;;;;;;;4.77;3.43;;;12.10;99.90;;;12.51;95.64;101697.56;4990990;28;20666;-66
2022/01/01 02:26:33;;;;;;;5.43;3.30;;;12.10;99.90;;;12.48;95.92;101699.44;5000291;28;20615;-68
2022/01/01 02:29:02;;;;;;;3.30;3.00;;;12.20;99.90;;;12.45;95.89;101701.41;4993899;28;20618;-65
2022/01/01 02:31:33;;;;;;;3.20;2.70;;;12.10;99.90;;;12.48;96.10;101699.44;4993744;28;20993;-68
2022/01/01 02:34:08;;;;;;;2.67;2.47;;;12.10;99.90;;;12.44;95.77;101691.88;5010237;28;20720;-65
2022/01/01 02:36:38;;;;;;;4.27;3.60;;;12.10;99.90;;;12.41;95.88;101684.22;5006667;28;20661;-65
2022/01/01 02:39:21;;;;;;;4.00;3.23;;;12.00;99.90;;;12.39;96.62;101686.09;4992042;28;20622;-65
2022/01/01 02:41:51;;;;;;;3.80;3.17;;;12.00;99.90;;;12.41;96.53;101682.41;4991019;28;20637;-67
2022/01/01 02:44:22;;;;;;;4.20;3.70;;;12.00;99.90;;;12.41;97.17;101679.00;4990361;28;21029;-67
2022/01/01 02:46:52;;;;;;;4.13;3.60;;;12.00;99.90;;;12.40;97.19;101677.28;4989321;28;21295;-67
2022/01/01 02:49:20;;;;;;;5.00;4.20;;;12.00;99.90;;;12.38;96.88;101682.63;4981573;28;20635;-67
2022/01/01 02:51:47;;;;;;;4.53;3.50;;;12.00;99.90;;;12.36;97.06;101686.28;4972248;28;20654;-65
2022/01/01 02:54:14;;;;;;;6.60;3.90;;;12.00;99.90;;;12.33;97.12;101682.06;4980003;28;20633;-67
2022/01/01 02:56:40;;;;;;;7.07;4.07;;;12.00;99.90;;;12.29;97.90;101684.97;4971950;28;20665;-67
2022/01/01 02:59:07;;;;;;;4.20;3.17;;;11.90;99.90;;;12.30;97.57;101682.28;4970796;28;20643;-67
2022/01/01 03:01:34;;;;;;;5.60;4.20;;;12.00;99.90;;;12.34;97.31;101675.06;4977317;28;21222;-66
2022/01/01 03:04:01;;;;;;;5.80;3.67;;;12.00;99.90;;;12.34;97.00;101667.22;4994069;28;20694;-65
2022/01/01 03:06:29;;;;;;;6.40;4.40;;;12.00;99.90;;;12.32;96.87;101667.31;4991574;28;20610;-66
2022/01/01 03:08:56;;;;;;;6.80;4.00;;;12.00;99.90;;;12.31;96.99;101673.47;5000060;28;20607;-66
2022/01/01 03:11:23;;;;;;;3.37;3.07;;;12.00;99.90;;;12.29;97.22;101669.25;4992092;28;20621;-66
2022/01/01 03:13:50;;;;;;;5.60;4.40;;;11.90;99.90;;;12.28;97.09;101675.44;4992387;28;20615;-65
2022/01/01 03:16:17;;;;;;;6.77;4.33;;;11.90;99.90;;;12.27;97.59;101671.13;4972171;28;20713;-66
2022/01/01 03:18:44;;;;;;;4.17;3.77;;;11.90;99.90;;;12.28;97.09;101665.84;4991824;28;20622;-66
2022/01/01 03:21:12;;;;;;;6.47;4.00;;;11.90;99.90;;;12.27;96.93;101671.13;5007706;28;20772;-66
2022/01/01 03:23:39;;;;;;;4.13;3.60;;;11.90;99.90;;;12.26;97.67;101656.38;4992528;28;20745;-66
2022/01/01 03:26:06;;;;;;;6.20;4.47;;;11.90;99.90;;;12.24;98.16;101661.72;5007238;28;20967;-66
2022/01/01 03:28:33;;;;;;;5.23;3.93;;;11.90;99.90;;;12.23;98.09;101661.81;4957885;28;21328;-65
2022/01/01 03:31:00;;;;;;;5.20;4.40;;;11.80;99.90;;;12.26;97.93;101659.00;4972026;28;20706;-66
2022/01/01 03:33:27;;;;;;;5.73;3.93;;;11.90;99.90;;;12.25;98.34;101658.16;4981383;28;20626;-65
2022/01/01 03:35:54;;;;;;;4.90;3.60;;;11.90;99.90;;;12.29;97.64;101659.66;5005725;28;20628;-65
2022/01/01 03:38:21;;;;;;;3.73;3.37;;;11.90;99.90;;;12.28;97.74;101655.38;4993452;28;20753;-66
2022/01/01 03:40:48;;;;;;;5.67;3.00;;;11.90;99.90;;;12.27;97.21;101655.44;4991375;28;20649;-66
2022/01/01 03:43:15;;;;;;;5.60;3.20;;;11.90;99.90;;;12.20;97.55;101648.94;4990441;28;20721;-67
2022/01/01 03:45:42;;;;;;;4.87;3.60;;;11.80;99.90;;;12.18;97.85;101654.25;4992096;28;20662;-66
2022/01/01 03:48:10;;;;;;;3.53;3.20;;;11.80;99.90;;;12.14;97.91;101655.38;4993282;28;20752;-65
2022/01/01 03:50:37;;;;;;;5.20;3.70;;;11.70;99.90;;;12.01;98.82;101654.44;5002652;28;20622;-65
2022/01/01 03:53:04;;;;;;;5.40;3.57;;;11.60;99.90;;;11.96;99.96;101647.81;4998666;28;21067;-65
2022/01/01 03:55:31;;;;;;;3.97;2.43;;;11.60;99.90;;;11.85;100.00;101643.25;4975513;28;20626;-65
2022/01/01 03:57:57;;;;;;;4.67;3.37;;;11.50;99.90;;;11.80;100.00;101642.69;4969683;28;20849;-67
2022/01/01 04:00:24;;;;;;;5.60;3.33;;;11.40;99.90;;;11.76;100.00;101648.19;4972153;28;20635;-67
2022/01/01 04:02:51;;;;;;;3.50;3.20;;;11.30;99.90;;;11.74;100.00;101644.81;4974837;28;20619;-66
2022/01/01 04:05:18;;;;;;;4.00;3.53;;;11.30;99.90;;;11.72;100.00;101658.00;4973198;28;21081;-66
2022/01/01 04:07:45;;;;;;;5.47;3.80;;;11.30;99.90;;;11.76;100.00;101650.81;4995222;28;20680;-65
2022/01/01 04:10:12;;;;;;;6.27;3.90;;;11.40;99.90;;;11.79;100.00;101651.47;5010580;28;20627;-65
2022/01/01 04:12:39;;;;;;;6.00;4.20;;;11.40;99.90;;;11.80;100.00;101655.75;4993870;28;20642;-65
2022/01/01 04:15:07;;;;;;;5.67;4.30;;;11.40;99.90;;;11.80;100.00;101650.53;4994240;28;21201;-66
2022/01/01 04:17:37;;;;;;;5.90;4.03;;;11.40;99.90;;;11.81;100.00;101657.47;4992297;28;20661;-65
2022/01/01 04:20:06;;;;;;;5.50;4.20;;;11.40;99.90;;;11.79;100.00;101654.09;4994427;28;20624;-65
2022/01/01 04:22:33;;;;;;;5.97;4.33;;;11.40;99.90;;;11.80;100.00;101660.16;4985497;28;20645;-66
2022/01/01 04:25:00;;;;;;;5.83;4.43;;;11.40;99.90;;;11.83;100.00;101660.81;4994319;28;20670;-65
2022/01/01 04:27:27;;;;;;;5.70;4.07;;;11.40;99.90;;;11.85;100.00;101658.09;4992136;28;20664;-66
2022/01/01 04:29:54;;;;;;;5.20;4.27;;;11.40;99.90;;;11.89;100.00;101670.06;4998748;28;20729;-64
2022/01/01 04:32:20;;;;;;;4.00;3.60;;;11.50;99.90;;;11.92;100.00;101672.50;5004725;28;20986;-70
2022/01/01 04:34:47;;;;;;;5.63;3.40;;;11.50;99.90;;;11.94;99.91;101668.00;5002773;28;20641;-66
2022/01/01 04:37:17;;;;;;;5.10;3.30;;;11.60;99.90;;;11.97;100.00;101673.06;4991927;28;20662;-67
2022/01/01 04:39:44;;;;;;;3.33;3.03;;;11.60;99.90;;;12.00;98.92;101675.47;5001823;28;20641;-66
2022/01/01 04:42:10;;;;;;;4.37;3.67;;;11.70;99.90;;;12.02;98.62;101674.44;4993214;28;21166;-65
2022/01/01 04:44:37;;;;;;;5.70;3.73;;;11.70;99.90;;;12.03;99.40;101681.34;4992743;28;20670;-65
2022/01/01 04:47:05;;;;;;;9.10;3.80;;;11.70;99.90;;;12.06;100.00;101682.94;4988860;28;20761;-65
2022/01/01 04:49:32;;;;;;;5.43;3.80;;;11.70;99.90;;;12.07;98.92;101682.88;4958667;28;21192;-67
2022/01/01 04:51:59;;;;;;;4.50;3.97;;;11.70;99.90;;;12.09;98.91;101693.22;4991481;28;20638;-68
2022/01/01 04:54:26;;;;;;;6.03;3.60;;;11.70;99.90;;;12.11;99.15;101684.34;4991702;28;21000;-67
2022/01/01 04:56:54;;;;;;;5.13;3.67;;;11.70;99.90;;;12.12;98.25;101682.56;4992308;28;21054;-66
2022/01/01 04:59:21;;;;;;;3.83;3.40;;;11.80;99.90;;;12.14;97.52;101686.75;4992592;28;20614;-65
2022/01/01 05:01:48;;;;;;;5.50;3.50;;;11.80;99.90;;;12.11;98.14;101691.34;4992789;28;21007;-65
2022/01/01 05:04:15;;;;;;;5.80;3.60;;;11.70;99.90;;;12.10;98.40;101682.66;4992597;28;20721;-68
2022/01/01 05:06:42;;;;;;;5.20;3.60;;;11.70;99.90;;;12.12;98.58;101682.56;4990453;28;21264;-68
2022/01/01 05:09:12;;;;;;;3.67;3.30;;;11.80;99.90;;;12.08;98.09;101678.44;4997929;28;20689;-66
2022/01/01 05:11:39;;;;;;;4.20;3.30;;;11.70;99.90;;;12.08;98.34;101676.69;5010788;28;20630;-64
2022/01/01 05:14:06;;;;;;;8.53;3.70;;;11.70;99.90;;;12.08;97.54;101673.22;4992391;28;21178;-66
2022/01/01 05:16:33;;;;;;;4.73;2.93;;;11.70;99.90;;;12.05;98.44;101676.03;4992793;28;20622;-66
2022/01/01 05:19:00;;;;;;;4.80;3.37;;;11.70;99.90;;;12.04;98.57;101674.34;4991503;28;21086;-66
2022/01/01 05:21:31;;;;;;;7.10;4.13;;;11.60;99.90;;;11.97;98.44;101679.09;4993100;28;20618;-66
2022/01/01 05:23:59;;;;;;;4.70;3.70;;;11.60;99.90;;;11.89;99.21;101678.75;4991531;28;20644;-67
2022/01/01 05:26:26;;;;;;;4.03;3.63;;;11.50;99.90;;;11.87;99.20;101674.53;4992919;28;20662;-66
2022/01/01 05:28:53;;;;;;;4.20;3.17;;;11.50;99.90;;;11.83;99.63;101678.28;4999651;28;20631;-65
2022/01/01 05:31:20;;;;;;;5.00;3.30;;;11.40;99.90;;;11.81;99.90;101693.22;5011075;28;20614;-67
2022/01/01 05:33:50;;;;;;;5.80;3.40;;;11.40;99.90;;;11.79;100.00;101682.84;4968303;28;20631;-66
2022/01/01 05:36:18;;;;;;;6.37;4.20;;;11.40;99.90;;;11.81;100.00;101694.06;4973450;28;20993;-65
2022/01/01 05:38:46;;;;;;;6.23;3.57;;;11.40;99.90;;;11.83;100.00;101700.03;4972570;28;20635;-66
2022/01/01 05:41:13;;;;;;;14.00;3.90;;;11.50;99.90;;;11.79;100.00;101690.69;4976876;28;20634;-65
2022/01/01 05:43:40;;;;;;;12.17;3.87;;;11.40;99.90;;;11.82;99.89;101694.91;5001838;28;21205;-66
2022/01/01 05:46:07;;;;;;;4.60;3.53;;;11.50;99.90;;;11.86;100.00;101696.41;4975463;28;21265;-66
2022/01/01 05:48:34;;;;;;;5.73;4.00;;;11.50;99.90;;;11.82;99.81;101694.91;4990416;28;20697;-66
2022/01/01 05:51:03;;;;;;;3.93;3.53;;;11.50;99.90;;;11.86;99.71;101699.03;4990011;28;21025;-65
2022/01/01 05:53:30;;;;;;;4.53;3.53;;;11.50;99.90;;;11.86;100.00;101697.22;4974954;28;20729;-65
2022/01/01 05:55:57;;;;;;;6.87;3.43;;;11.50;99.90;;;11.84;99.81;101696.47;4998056;28;20641;-65
2022/01/01 05:58:24;;;;;;;5.77;3.60;;;11.50;99.90;;;11.86;99.57;101704.25;5002646;28;20663;-63
2022/01/01 06:00:51;;;;;;;8.13;3.07;;;11.50;99.90;;;11.84;100.00;101695.66;4986432;28;20650;-66
2022/01/01 06:03:18;;;;;;;4.03;2.87;;;11.40;99.90;;;11.78;100.00;101693.38;4990412;28;21221;-66
2022/01/01 06:05:45;;;;;;;8.13;4.60;;;11.40;99.90;;;11.75;100.00;101694.44;4985294;28;20667;-65
2022/01/01 06:08:12;;;;;;;5.53;3.40;;;11.40;99.90;;;11.71;100.00;101687.72;4973761;28;20838;-65
2022/01/01 06:10:39;;;;;;;7.03;3.40;;;11.30;99.90;;;11.69;100.00;101698.25;4990765;28;20624;-66
2022/01/01 06:13:06;;;;;;;4.17;3.33;;;11.30;99.90;;;11.73;100.00;101698.06;4992744;28;21158;-65
2022/01/01 06:15:33;;;;;;;4.50;3.10;;;11.30;99.90;;;11.68;100.00;101698.34;4990409;28;20626;-68
2022/01/01 06:18:01;;;;;;;4.70;3.47;;;11.30;99.90;;;11.58;100.00;101686.72;4991650;28;20737;-65
2022/01/01 06:20:28;;;;;;;3.90;3.37;;;11.20;99.90;;;11.57;100.00;101682.41;4973100;28;20745;-65
2022/01/01 06:23:04;;;;;;;7.43;3.40;;;11.20;99.90;;;11.55;100.00;101679.06;4991226;28;21181;-66
2022/01/01 06:25:33;;;;;;;6.87;3.63;;;11.20;99.90;;;11.54;100.00;101674.78;4997907;28;20670;-66
2022/01/01 06:28:00;;;;;;;4.50;3.80;;;11.20;99.90;;;11.52;100.00;101679.25;4989362;28;20719;-65
2022/01/01 06:30:33;;;;;;;5.33;3.73;;;11.20;99.90;;;11.43;100.00;101682.41;4994485;28;20638;-67
2022/01/01 06:33:14;;;;;;;5.03;3.73;;;11.00;99.90;;;11.39;100.00;101675.69;4975439;28;20646;-66
2022/01/01 06:35:46;;;;;;;3.90;2.97;;;11.00;99.90;;;11.36;100.00;101670.63;4973224;28;20626;-66
2022/01/01 06:38:13;;;;;;;5.37;3.33;;;11.00;99.90;;;11.39;100.00;101665.22;4974556;28;20987;-65
2022/01/01 06:40:42;;;;;;;4.30;3.37;;;11.00;99.90;;;11.29;100.00;101670.13;4987996;28;20652;-65
2022/01/01 06:43:11;;;;;;;3.47;2.80;;;10.90;99.90;;;11.27;100.00;101676.38;4974156;28;20705;-66
2022/01/01 06:45:39;;;;;;;6.57;3.57;;;10.90;99.90;;;11.26;100.00;101670.34;4972296;28;20672;-66
2022/01/01 06:48:06;;;;;;;7.87;3.60;;;10.90;99.90;;;11.24;100.00;101677.41;5003198;23;20726;-68
2022/01/01 06:50:35;;;;;;;6.17;2.70;;;10.90;99.90;;;11.14;100.00;101676.25;4972452;28;20642;-68
2022/01/01 06:53:07;;;;;;;5.77;3.30;;;10.90;99.90;;;11.10;100.00;101685.19;4979635;28;20655;-68
2022/01/01 06:55:34;;;;;;;7.20;2.90;;;10.80;99.90;;;11.14;100.00;101688.50;5001266;28;21275;-68
2022/01/01 06:58:01;;;;;;;3.20;2.10;;;10.80;99.90;;;11.10;100.00;101686.94;5007160;28;20732;-67
2022/01/01 07:00:28;;;;;;;7.10;3.63;;;10.80;99.90;;;11.13;100.00;101690.25;4990175;28;20649;-68
2022/01/01 07:02:55;;;;;;;5.57;3.60;;;10.80;99.90;;;11.19;100.00;101686.44;5002497;28;20671;-69
2022/01/01 07:05:22;;;;;;;4.87;3.30;;;10.80;99.90;;;11.23;100.00;101685.31;4974614;28;20694;-68
2022/01/01 07:07:49;;;;;;;4.60;2.83;;;10.90;99.90;;;11.20;100.00;101686.34;4984404;28;20634;-68
2022/01/01 07:10:16;;;;;;;5.20;3.40;;;10.90;99.90;;;11.20;100.00;101688.13;5003098;28;20638;-68
2022/01/01 07:12:43;;;;;;;4.63;3.53;;;10.90;99.90;;;11.16;100.00;101699.69;4990488;28;21189;-68
2022/01/01 07:15:11;;;;;;;6.97;4.10;;;10.80;99.90;;;11.22;100.00;101700.16;4990137;28;20673;-68
2022/01/01 07:17:38;;;;;;;6.60;4.57;;;10.80;99.90;;;11.26;100.00;101698.22;4990657;28;20638;-68
2022/01/01 07:20:06;;;;;;;8.07;4.57;;;10.90;99.90;;;11.23;100.00;101694.00;4989009;28;20626;-68
2022/01/01 07:22:42;;;;;;;4.47;3.30;;;10.90;99.90;;;11.26;100.00;101700.84;4955753;28;20615;-68
2022/01/01 07:25:11;;;;;;;5.37;3.03;;;10.90;99.90;;;11.21;100.00;101715.91;4954031;28;20635;-67
2022/01/01 07:27:39;;;;;;;4.87;3.70;;;10.90;99.90;;;11.25;100.00;101714.81;4969652;28;20657;-68
2022/01/01 07:30:07;;;;;;;7.57;4.53;;;10.90;99.90;;;11.27;100.00;101723.41;4970596;28;20618;-68
2022/01/01 07:32:42;;;;;;;2.73;2.50;;;10.90;99.90;;;11.26;100.00;101726.97;4972831;28;20633;-67
2022/01/01 07:35:12;;;;;;;3.90;3.30;;;10.90;99.90;;;11.31;100.00;101735.34;4999066;28;20629;-68
2022/01/01 07:37:39;;;;;;;6.60;4.20;;;10.90;99.90;;;11.33;100.00;101744.78;5011302;28;21224;-68
2022/01/01 07:40:09;;;;;;;7.13;4.00;;;11.00;99.90;;;11.34;100.00;101740.41;4995714;28;20617;-68
2022/01/01 07:42:36;;;;;;;3.47;3.10;;;11.00;99.90;;;11.35;100.00;101749.97;4994704;28;20714;-68
2022/01/01 07:45:05;;;;;;;5.50;3.70;;;11.00;99.90;;;11.22;100.00;101756.81;4992221;28;20764;-68
2022/01/01 07:47:32;;;;;;;4.47;3.20;;;10.90;99.90;;;11.25;100.00;101751.38;4992791;28;20669;-68
2022/01/01 07:49:59;;;;;;;5.47;3.77;;;10.90;99.90;;;11.24;100.00;101760.16;4976518;28;20621;-68
2022/01/01 07:52:26;;;;;;;8.60;5.10;;;10.90;99.90;;;11.31;100.00;101759.72;4976345;28;20637;-67
2022/01/01 07:54:53;;;;;;;7.47;4.80;;;11.00;99.90;;;11.36;100.00;101767.31;4997992;28;20686;-66
2022/01/01 07:57:22;;;;;;;7.90;5.10;;;11.00;99.90;;;11.39;100.00;101765.34;5004795;28;20645;-65
2022/01/01 07:59:49;;;;;;;9.13;4.77;;;11.10;99.90;;;11.48;100.00;101766.59;5006691;28;20630;-66
2022/01/01 08:02:16;;;;;;;4.90;4.27;;;11.20;99.90;;;11.53;100.00;101772.41;4994671;28;20646;-67
2022/01/01 08:04:43;;;;;;;7.23;4.87;;;11.20;99.90;;;11.53;100.00;101770.63;4990212;28;20630;-67
2022/01/01 08:07:10;;;;;;;6.67;4.77;;;11.20;99.90;;;11.58;100.00;101779.03;4974721;28;20667;-67
2022/01/01 08:09:57;;;;;;;9.20;4.97;;;11.30;99.90;;;11.63;100.00;101784.00;4985327;28;21204;-67
2022/01/01 08:12:24;;;;;;;8.93;5.13;;;11.30;99.90;;;11.69;99.95;101783.69;5002225;28;21208;-66
2022/01/01 08:14:52;;;;;;;9.10;5.07;;;11.40;99.90;;;11.74;99.84;101789.47;4994736;28;20705;-67
2022/01/01 08:17:19;;;;;;;10.63;4.70;;;11.50;99.90;;;11.77;99.61;101791.09;4992751;28;20689;-67
2022/01/01 08:19:46;;;;;;;6.60;4.87;;;11.50;99.90;;;11.82;99.28;101795.09;4993138;28;20638;-67
2022/01/01 08:22:14;;;;;;;6.10;4.40;;;11.50;99.90;;;11.87;98.21;101793.06;4976524;28;20614;-67
2022/01/01 08:24:41;;;;;;;8.23;5.00;;;11.60;99.90;;;11.92;98.85;101788.41;4975631;28;20649;-66
2022/01/01 08:27:09;;;;;;;6.30;4.73;;;11.60;99.90;;;11.93;98.40;101784.84;4976769;28;20761;-66
2022/01/01 08:29:36;;;;;;;5.20;3.63;;;11.60;99.90;;;11.94;97.79;101791.78;4984326;28;20690;-65
2022/01/01 08:32:04;;;;;;;8.63;3.90;;;11.60;99.90;;;11.81;97.38;101784.75;4973952;28;20610;-66
2022/01/01 08:34:30;;;;;;;6.20;3.60;;;11.50;99.90;;;11.71;97.39;101781.84;4973047;28;20638;-66
2022/01/01 08:36:57;;;;;;;5.30;3.80;;;11.40;99.90;;;11.64;98.74;101777.84;4973889;28;20638;-66
2022/01/01 08:39:24;;;;;;;6.17;4.03;;;11.30;99.90;;;11.61;98.29;101781.47;4973361;28;20639;-66
2022/01/01 08:41:51;;;;;;;7.20;4.20;;;11.20;99.90;;;11.71;98.75;101787.06;4975291;28;20618;-66
2022/01/01 08:44:18;;;;;;;9.10;4.87;;;11.40;99.90;;;11.76;97.88;101779.78;4974880;28;20734;-67
2022/01/01 08:46:45;;;;;;;9.10;4.60;;;11.50;99.90;;;11.79;97.33;101777.00;4994669;28;21274;-66
2022/01/01 08:49:12;;;;;;;8.00;5.17;;;11.50;99.90;;;11.80;97.15;101776.03;4985135;28;20696;-68
2022/01/01 08:51:43;;;;;;;10.20;4.33;;;11.50;99.90;;;11.86;96.41;101780.09;4979910;28;20725;-68
2022/01/01 08:54:13;;;;;;;5.80;3.57;;;11.60;99.90;;;11.81;98.05;101775.13;4983949;28;20757;-67
2022/01/01 08:56:41;;;;;;;11.30;4.10;;;11.50;99.90;;;11.85;97.13;101774.00;4974988;28;20992;-69
2022/01/01 08:59:08;;;;;;;5.10;3.50;;;11.50;99.90;;;11.81;96.67;101767.28;4982696;28;21204;-68
2022/01/01 09:01:35;;;;;;;4.87;3.33;;;11.50;99.90;;;11.83;96.95;101765.41;5012966;28;20609;-68
2022/01/01 09:04:03;;;;;;;5.57;3.10;;;11.50;99.90;;;11.85;97.42;101766.16;4978222;28;20646;-68
2022/01/01 09:06:30;;;;;;;7.50;4.67;;;11.60;99.90;;;11.89;96.80;101751.97;4987491;28;20664;-68
2022/01/01 09:08:57;;;;;;;8.17;4.93;;;11.60;99.90;;;11.85;97.47;101765.31;4991446;28;20789;-67
2022/01/01 09:11:24;;;;;;;10.27;5.60;;;11.60;99.90;;;11.96;96.45;101770.75;4992430;28;20614;-67
2022/01/01 09:13:51;;;;;;;12.80;4.50;;;11.70;99.90;;;12.03;96.09;101764.25;4974539;28;20677;-68
2022/01/01 09:16:20;;;;;;;6.90;4.60;;;11.90;99.90;;;12.11;95.57;101767.22;4975978;28;20714;-68
2022/01/01 09:18:48;;;;;;;5.67;3.40;;;11.90;99.90;;;12.17;95.26;101761.63;4974014;28;20658;-69
2022/01/01 09:21:15;;;;;;;6.20;4.53;;;11.90;99.90;;;12.16;95.55;101765.19;4990459;28;20749;-68
2022/01/01 09:23:42;;;;;;;7.57;4.70;;;11.90;99.90;;;12.25;94.67;101767.22;4974216;28;21008;-68
2022/01/01 09:26:09;;;;;;;9.17;4.93;;;12.00;99.90;;;12.35;94.51;101773.59;4974770;28;21078;-68
2022/01/01 09:28:36;;;;;;;7.07;4.73;;;12.10;99.90;;;12.39;94.03;101772.47;4978571;28;20661;-68
2022/01/01 09:31:04;;;;;;;9.90;4.90;;;12.10;99.90;;;12.31;94.25;101766.84;5000428;28;21196;-68
2022/01/01 09:33:32;;;;;;;12.30;4.10;;;12.10;99.90;;;12.42;94.00;101774.88;4999858;28;20637;-68
2022/01/01 09:36:02;;;;;;;8.23;4.70;;;12.20;99.90;;;12.48;93.80;101769.25;4990524;28;21088;-68
2022/01/01 09:38:30;;;;;;;7.50;4.10;;;12.20;99.90;;;12.46;93.04;101766.75;4975625;28;20738;-68
2022/01/01 09:40:59;;;;;;;7.10;4.20;;;12.20;99.90;;;12.56;93.24;101771.41;4969625;28;20633;-68
2022/01/01 09:43:29;;;;;;;12.53;5.07;;;12.30;99.90;;;12.69;92.46;101769.72;4983489;28;20718;-69
2022/01/01 09:45:58;;;;;;;10.10;4.70;;;12.40;99.90;;;12.73;91.91;101774.69;4991209;28;20658;-68
2022/01/01 09:48:26;;;;;;;4.83;3.80;;;12.50;99.90;;;12.85;91.48;101776.50;4982229;28;20925;-68
2022/01/01 09:50:57;;;;;;;9.70;5.37;;;12.60;99.90;;;12.91;90.47;101783.13;4972188;28;20666;-68
2022/01/01 09:53:27;;;;;;;7.87;5.33;;;12.70;99.90;;;12.98;89.74;101789.66;4967160;28;21189;-68
2022/01/01 09:55:56;;;;;;;7.90;5.00;;;12.70;99.90;;;13.06;89.60;101783.03;4974918;28;20618;-68
2022/01/01 09:58:31;;;;;;;6.73;4.43;;;12.80;99.90;;;13.14;89.10;101785.16;4965859;28;21286;-68
2022/01/01 10:00:59;;;;;;;6.77;4.47;;;12.90;99.90;;;13.18;88.52;101777.00;4997236;28;20639;-68
2022/01/01 10:03:37;;;;;;;13.03;5.37;;;12.90;99.90;;;13.19;87.93;101777.84;4983677;28;21217;-68
2022/01/01 10:06:09;;;;;;;7.27;4.67;;;13.00;99.90;;;13.27;87.63;101777.38;5001008;28;20727;-67
2022/01/01 10:08:37;;;;;;;6.33;5.37;;;13.00;99.90;;;13.26;87.56;101783.53;4999237;28;20644;-68
2022/01/01 10:11:06;;;;;;;7.80;4.33;;;13.00;99.90;;;13.19;87.47;101783.94;4982925;28;20614;-68
2022/01/01 10:13:36;;;;;;;9.43;4.70;;;13.00;99.90;;;13.23;87.97;101780.16;4978363;28;20630;-69